Time;durP1;ratioP1;P1;durP2;ratioP2;P2;SDS_P1;SDS_P2;PMS_P1;PMS_P2;Temp;Humidity;BMP_temperature;BMP_pressure;BME280_temperature;BME280_humidity;BME280_pressure;Samples;Min_cycle;Max_cycle;Signal;HPM_P1;HPM_P2
2023/04/19 00:01:23;;;;;;;;;;;9.88;35.58;;;;;;2670460;76;20308;-91
2023/04/19 00:04:52;;;;;;;;;;;9.88;35.46;;;;;;2671076;76;20406;-92
2023/04/19 00:08:20;;;;;;;;;;;9.92;35.94;;;;;;2672316;76;20307;-91
2023/04/19 00:11:48;;;;;;;;;;;9.91;35.68;;;;;;2672103;76;20412;-91
2023/04/19 00:15:16;;;;;;;;;;;9.91;35.82;;;;;;2672647;76;20436;-91
2023/04/19 00:18:50;;;;;;;;;;;9.88;35.75;;;;;;2672435;76;20411;-92
2023/04/19 00:22:18;;;;;;;;;;;9.83;35.71;;;;;;2672028;76;20320;-91
2023/04/19 00:25:46;;;;;;;;;;;9.75;35.44;;;;;;2671405;76;20449;-91
2023/04/19 00:29:14;;;;;;;;;;;9.68;35.55;;;;;;2671974;76;20469;-91
2023/04/19 00:32:43;;;;;;;;;;;9.74;36.10;;;;;;2671506;76;20446;-91
2023/04/19 00:36:11;;;;;;;;;;;9.69;35.66;;;;;;2672206;76;20460;-92
2023/04/19 00:39:39;;;;;;;;;;;9.71;35.89;;;;;;2672346;76;20348;-91
2023/04/19 00:43:12;;;;;;;;;;;9.70;35.97;;;;;;2671526;76;20453;-92
2023/04/19 00:46:37;;;;;;;;;;;9.68;35.99;;;;;;2672096;76;20441;-91
2023/04/19 00:50:05;;;;;;;;;;;9.69;35.97;;;;;;2672205;76;20423;-91
2023/04/19 00:53:33;;;;;;;;;;;9.71;36.08;;;;;;2670171;76;20300;-91
2023/04/19 00:57:01;;;;;;;;;;;9.71;35.79;;;;;;2671088;76;20438;-92
2023/04/19 01:00:30;;;;;;;;;;;9.74;36.16;;;;;;2672333;76;20756;-92
2023/04/19 01:03:58;;;;;;;;;;;9.71;35.80;;;;;;2670808;76;20340;-91
2023/04/19 01:07:29;;;;;;;;;;;9.76;36.18;;;;;;2671927;76;20529;-91
2023/04/19 01:10:57;;;;;;;;;;;9.81;36.37;;;;;;2672489;76;20438;-91
2023/04/19 01:14:25;;;;;;;;;;;9.83;36.04;;;;;;2671294;76;20848;-90
2023/04/19 01:17:55;;;;;;;;;;;9.81;36.08;;;;;;2671929;76;20482;-91
2023/04/19 01:21:23;;;;;;;;;;;9.83;36.16;;;;;;2671063;76;20585;-91
2023/04/19 01:24:51;;;;;;;;;;;9.84;36.26;;;;;;2670852;76;20464;-91
2023/04/19 01:28:19;;;;;;;;;;;9.83;36.25;;;;;;2671267;76;20426;-91
2023/04/19 01:31:50;;;;;;;;;;;9.81;36.01;;;;;;2671805;76;21446;-91
2023/04/19 01:35:17;;;;;;;;;;;9.82;36.21;;;;;;2671321;76;20646;-91
2023/04/19 01:38:51;;;;;;;;;;;9.85;36.33;;;;;;2671641;76;20411;-91
2023/04/19 01:42:15;;;;;;;;;;;9.85;36.34;;;;;;2670937;76;20417;-92
2023/04/19 01:45:54;;;;;;;;;;;;;;;;;;;;;
2023/04/19 01:49:14;;;;;;;;;;;9.81;36.53;;;;;;2671750;76;20311;-92
2023/04/19 01:52:43;;;;;;;;;;;9.72;36.74;;;;;;2671263;76;20451;-90
2023/04/19 01:56:11;;;;;;;;;;;9.76;36.92;;;;;;2671886;76;20464;-91
2023/04/19 01:59:39;;;;;;;;;;;9.71;36.71;;;;;;2671975;76;20463;-92
2023/04/19 02:03:07;;;;;;;;;;;9.65;36.79;;;;;;2670534;76;20468;-92
2023/04/19 02:06:35;;;;;;;;;;;9.61;37.22;;;;;;2672060;76;20914;-92
2023/04/19 02:10:04;;;;;;;;;;;9.61;37.50;;;;;;2671766;76;20459;-91
2023/04/19 02:13:32;;;;;;;;;;;9.62;37.66;;;;;;2670523;76;20318;-92
2023/04/19 02:17:01;;;;;;;;;;;9.68;37.50;;;;;;2670836;76;21182;-92
2023/04/19 02:20:30;;;;;;;;;;;9.68;37.39;;;;;;2670615;76;20311;-92
2023/04/19 02:23:58;;;;;;;;;;;9.69;37.29;;;;;;2670688;76;20914;-92
2023/04/19 02:27:26;;;;;;;;;;;9.62;37.24;;;;;;2671560;76;20463;-92
2023/04/19 02:30:54;;;;;;;;;;;9.53;37.44;;;;;;2671572;76;20426;-92
2023/04/19 02:34:22;;;;;;;;;;;9.49;37.75;;;;;;2670202;76;20423;-92
2023/04/19 02:37:50;;;;;;;;;;;9.53;38.09;;;;;;2670784;76;20474;-92
2023/04/19 02:41:18;;;;;;;;;;;9.59;37.86;;;;;;2671676;76;20450;-92
2023/04/19 02:44:46;;;;;;;;;;;9.57;37.94;;;;;;2670698;76;20457;-92
2023/04/19 02:48:15;;;;;;;;;;;9.53;37.72;;;;;;2670957;76;20645;-92
2023/04/19 02:51:43;;;;;;;;;;;9.57;38.08;;;;;;2671621;76;20472;-92
2023/04/19 02:55:11;;;;;;;;;;;9.62;38.05;;;;;;2670834;76;20477;-92
2023/04/19 02:58:39;;;;;;;;;;;9.65;38.04;;;;;;2671479;76;21194;-92
2023/04/19 03:02:07;;;;;;;;;;;9.64;37.72;;;;;;2671442;76;20895;-93
2023/04/19 03:05:35;;;;;;;;;;;9.63;37.64;;;;;;2668867;76;20498;-91
2023/04/19 03:09:05;;;;;;;;;;;9.65;37.74;;;;;;2670961;76;20802;-93
2023/04/19 03:12:34;;;;;;;;;;;9.66;37.59;;;;;;2671005;76;20782;-92
2023/04/19 03:16:02;;;;;;;;;;;9.66;37.59;;;;;;2671193;76;20462;-93
2023/04/19 03:19:32;;;;;;;;;;;9.65;37.33;;;;;;2670739;76;20432;-92
2023/04/19 03:23:01;;;;;;;;;;;9.66;37.40;;;;;;2670923;76;20930;-93
2023/04/19 03:26:29;;;;;;;;;;;9.67;37.56;;;;;;2671022;76;21034;-92
2023/04/19 03:29:58;;;;;;;;;;;9.68;37.47;;;;;;2671278;76;20488;-91
2023/04/19 03:33:26;;;;;;;;;;;9.68;37.30;;;;;;2671549;76;20445;-92
2023/04/19 03:36:57;;;;;;;;;;;9.66;37.41;;;;;;2671781;76;20886;-91
2023/04/19 03:40:25;;;;;;;;;;;9.64;37.58;;;;;;2671831;76;20442;-91
2023/04/19 03:43:53;;;;;;;;;;;9.68;37.79;;;;;;2672082;76;20419;-91
2023/04/19 03:47:21;;;;;;;;;;;9.65;37.45;;;;;;2672501;76;20903;-90
2023/04/19 03:50:49;;;;;;;;;;;9.62;37.30;;;;;;2671258;76;20463;-91
2023/04/19 03:54:23;;;;;;;;;;;9.62;37.47;;;;;;2671497;76;20431;-91
2023/04/19 03:57:48;;;;;;;;;;;9.63;37.48;;;;;;2670721;76;20487;-90
2023/04/19 04:01:18;;;;;;;;;;;9.62;37.68;;;;;;2670758;76;20426;-90
2023/04/19 04:04:48;;;;;;;;;;;9.62;37.38;;;;;;2671149;76;20472;-91
2023/04/19 04:08:16;;;;;;;;;;;9.60;37.35;;;;;;2671392;76;20462;-91
2023/04/19 04:11:44;;;;;;;;;;;9.59;37.18;;;;;;2672075;76;20436;-90
2023/04/19 04:15:12;;;;;;;;;;;9.57;37.39;;;;;;2670843;76;20978;-91
2023/04/19 04:18:40;;;;;;;;;;;9.64;37.66;;;;;;2670779;76;20490;-91
2023/04/19 04:22:09;;;;;;;;;;;9.55;37.04;;;;;;2669936;76;20420;-92
2023/04/19 04:25:38;;;;;;;;;;;9.59;37.37;;;;;;2669508;76;20920;-92
2023/04/19 04:29:06;;;;;;;;;;;9.51;37.13;;;;;;2670659;76;20430;-92
2023/04/19 04:32:37;;;;;;;;;;;9.53;37.75;;;;;;2671320;76;20300;-91
2023/04/19 04:36:06;;;;;;;;;;;9.50;37.88;;;;;;2672730;76;20464;-91
2023/04/19 04:39:38;;;;;;;;;;;9.55;37.75;;;;;;2673493;76;20312;-91
2023/04/19 04:43:04;;;;;;;;;;;9.64;37.94;;;;;;2673131;76;20458;-90
2023/04/19 04:46:32;;;;;;;;;;;9.67;37.29;;;;;;2673955;76;20446;-91
2023/04/19 04:50:01;;;;;;;;;;;9.74;37.18;;;;;;2674196;76;20508;-91
2023/04/19 04:53:29;;;;;;;;;;;9.79;37.08;;;;;;2674903;76;20312;-91
2023/04/19 04:56:57;;;;;;;;;;;9.77;36.87;;;;;;2674774;76;21177;-91
2023/04/19 05:00:25;;;;;;;;;;;9.82;37.20;;;;;;2674717;76;20420;-91
2023/04/19 05:03:53;;;;;;;;;;;9.91;37.03;;;;;;2674110;76;20347;-91
2023/04/19 05:07:21;;;;;;;;;;;9.94;36.68;;;;;;2674398;76;20433;-92
2023/04/19 05:10:49;;;;;;;;;;;9.95;36.33;;;;;;2673771;76;20432;-91
2023/04/19 05:14:18;;;;;;;;;;;9.81;36.24;;;;;;2673790;76;20315;-92
2023/04/19 05:17:46;;;;;;;;;;;9.76;36.40;;;;;;2672094;76;20440;-91
2023/04/19 05:21:14;;;;;;;;;;;9.71;36.40;;;;;;2672636;76;20359;-91
2023/04/19 05:24:44;;;;;;;;;;;9.70;36.69;;;;;;2674404;76;20302;-92
2023/04/19 05:28:12;;;;;;;;;;;9.79;36.77;;;;;;2673120;76;20391;-92
2023/04/19 05:31:40;;;;;;;;;;;9.85;36.43;;;;;;2673937;76;20480;-91
2023/04/19 05:35:09;;;;;;;;;;;9.97;36.37;;;;;;2672698;76;20295;-90
2023/04/19 05:38:38;;;;;;;;;;;10.04;35.64;;;;;;2672025;76;20426;-90
2023/04/19 05:42:06;;;;;;;;;;;10.09;35.44;;;;;;2672889;76;20956;-90
2023/04/19 05:45:34;;;;;;;;;;;10.15;35.18;;;;;;2672514;76;20454;-91
2023/04/19 05:49:02;;;;;;;;;;;10.13;34.36;;;;;;2672152;76;20599;-91
2023/04/19 05:52:30;;;;;;;;;;;10.09;34.15;;;;;;2673436;76;20445;-91
2023/04/19 05:55:58;;;;;;;;;;;10.03;34.26;;;;;;2673732;76;20454;-91
2023/04/19 05:59:27;;;;;;;;;;;9.99;34.15;;;;;;2674169;76;20426;-91
2023/04/19 06:02:55;;;;;;;;;;;9.99;34.50;;;;;;2674711;76;20406;-91
2023/04/19 06:06:23;;;;;;;;;;;9.94;34.04;;;;;;2673864;76;20937;-91
2023/04/19 06:09:51;;;;;;;;;;;9.90;33.81;;;;;;2673931;76;20899;-91
2023/04/19 06:13:19;;;;;;;;;;;9.95;34.38;;;;;;2672591;76;20430;-91
2023/04/19 06:16:48;;;;;;;;;;;9.94;33.83;;;;;;2674046;76;20450;-92
2023/04/19 06:20:16;;;;;;;;;;;10.09;34.34;;;;;;2677800;76;20430;-92
2023/04/19 06:23:44;;;;;;;;;;;10.30;34.46;;;;;;2673818;76;20440;-91
2023/04/19 06:27:12;;;;;;;;;;;10.42;33.65;;;;;;2672202;76;20476;-92
2023/04/19 06:30:41;;;;;;;;;;;10.59;33.60;;;;;;2672372;76;20824;-91
2023/04/19 06:34:09;;;;;;;;;;;10.72;32.36;;;;;;2672679;76;20326;-92
2023/04/19 06:37:38;;;;;;;;;;;10.89;32.70;;;;;;2672766;76;20440;-91
2023/04/19 06:41:09;;;;;;;;;;;11.07;32.37;;;;;;2672358;76;20412;-91
2023/04/19 06:44:43;;;;;;;;;;;11.03;31.72;;;;;;2672383;76;20427;-92
2023/04/19 06:48:14;;;;;;;;;;;11.04;31.87;;;;;;2672888;76;20423;-92
2023/04/19 06:51:42;;;;;;;;;;;11.12;31.32;;;;;;2673283;76;20960;-92
2023/04/19 06:55:12;;;;;;;;;;;11.15;31.22;;;;;;2672801;76;20459;-92
2023/04/19 06:58:40;;;;;;;;;;;11.31;31.53;;;;;;2676516;76;20954;-92
2023/04/19 07:02:11;;;;;;;;;;;11.49;31.00;;;;;;2672518;76;20487;-91
2023/04/19 07:05:50;;;;;;;;;;;11.56;29.93;;;;;;2671260;76;20435;-92
2023/04/19 07:09:26;;;;;;;;;;;11.69;30.32;;;;;;2675318;76;20960;-91
2023/04/19 07:12:54;;;;;;;;;;;12.13;29.40;;;;;;2679680;76;20303;-93
2023/04/19 07:16:28;;;;;;;;;;;12.38;26.56;;;;;;2675357;76;20292;-92
2023/04/19 07:19:53;;;;;;;;;;;12.95;27.07;;;;;;2673806;76;20438;-92
2023/04/19 07:23:43;;;;;;;;;;;13.59;25.65;;;;;;2674773;76;20547;-92
2023/04/19 07:27:13;;;;;;;;;;;13.94;24.08;;;;;;2683348;76;20304;-92
2023/04/19 07:30:41;;;;;;;;;;;14.49;24.40;;;;;;2684082;76;20294;-92
2023/04/19 07:34:09;;;;;;;;;;;14.78;23.76;;;;;;2684419;76;20322;-92
2023/04/19 07:37:37;;;;;;;;;;;14.79;23.05;;;;;;2683886;76;20371;-92
2023/04/19 07:41:05;;;;;;;;;;;14.84;22.69;;;;;;2685283;76;20259;-92
2023/04/19 07:44:33;;;;;;;;;;;15.12;21.09;;;;;;2684051;76;20362;-92
2023/04/19 07:48:01;;;;;;;;;;;15.41;21.32;;;;;;2683998;76;20372;-92
2023/04/19 07:51:30;;;;;;;;;;;15.39;20.75;;;;;;2684541;76;20390;-92
2023/04/19 07:54:58;;;;;;;;;;;15.53;21.83;;;;;;2681635;76;20325;-92
2023/04/19 07:58:26;;;;;;;;;;;15.73;21.88;;;;;;2683372;76;20382;-91
2023/04/19 08:01:54;;;;;;;;;;;15.96;22.21;;;;;;2684329;76;20376;-92
2023/04/19 08:05:26;;;;;;;;;;;16.03;22.37;;;;;;2683457;76;20459;-92
2023/04/19 08:08:54;;;;;;;;;;;16.03;21.97;;;;;;2684215;76;20471;-92
2023/04/19 08:12:22;;;;;;;;;;;15.63;18.18;;;;;;2682363;76;20817;-92
2023/04/19 08:15:50;;;;;;;;;;;15.77;19.44;;;;;;2681104;76;20443;-92
2023/04/19 08:19:18;;;;;;;;;;;16.20;19.30;;;;;;2681580;76;20490;-92
2023/04/19 08:22:46;;;;;;;;;;;16.74;16.67;;;;;;2682638;76;20404;-92
2023/04/19 08:26:15;;;;;;;;;;;16.82;14.76;;;;;;2682183;76;20401;-91
2023/04/19 08:29:43;;;;;;;;;;;17.04;15.56;;;;;;2681752;76;20431;-93
2023/04/19 08:33:14;;;;;;;;;;;16.67;16.63;;;;;;2679176;76;20508;-93
2023/04/19 08:36:42;;;;;;;;;;;15.09;10.13;;;;;;2681937;76;20416;-93
2023/04/19 08:40:10;;;;;;;;;;;14.29;13.02;;;;;;2682588;76;20410;-91
2023/04/19 08:43:38;;;;;;;;;;;13.98;15.63;;;;;;2681732;76;20246;-92
2023/04/19 08:47:07;;;;;;;;;;;13.68;15.39;;;;;;2682196;76;20733;-92
2023/04/19 08:50:35;;;;;;;;;;;13.76;15.78;;;;;;2681243;76;20250;-93
2023/04/19 08:54:08;;;;;;;;;;;14.38;18.01;;;;;;2681908;76;20399;-93
2023/04/19 08:57:33;;;;;;;;;;;14.33;16.04;;;;;;2681812;76;20432;-93
2023/04/19 09:01:02;;;;;;;;;;;14.10;14.63;;;;;;2680826;76;20666;-92
2023/04/19 09:04:30;;;;;;;;;;;13.84;16.55;;;;;;2679965;76;20414;-93
2023/04/19 09:07:58;;;;;;;;;;;13.49;16.89;;;;;;2681348;76;20423;-93
2023/04/19 09:11:26;;;;;;;;;;;13.41;16.23;;;;;;2680912;76;20398;-92
2023/04/19 09:14:54;;;;;;;;;;;13.75;16.96;;;;;;2681584;76;20406;-93
2023/04/19 09:18:23;;;;;;;;;;;14.20;17.32;;;;;;2682322;76;20416;-93
2023/04/19 09:21:52;;;;;;;;;;;14.50;16.51;;;;;;2681419;76;20466;-93
2023/04/19 09:25:22;;;;;;;;;;;14.54;16.52;;;;;;2682086;76;20554;-92
2023/04/19 09:28:50;;;;;;;;;;;14.37;16.40;;;;;;2681937;76;20417;-93
2023/04/19 09:32:19;;;;;;;;;;;13.93;16.27;;;;;;2682120;76;20424;-93
2023/04/19 09:35:48;;;;;;;;;;;14.08;16.75;;;;;;2682052;76;20486;-93
2023/04/19 09:39:16;;;;;;;;;;;13.94;15.55;;;;;;2681906;76;20380;-93
2023/04/19 09:42:45;;;;;;;;;;;14.07;14.92;;;;;;2682487;76;20391;-92
2023/04/19 09:46:13;;;;;;;;;;;14.24;15.69;;;;;;2681810;76;20417;-94
2023/04/19 09:49:42;;;;;;;;;;;14.25;14.47;;;;;;2682701;76;20409;-93
2023/04/19 09:53:10;;;;;;;;;;;14.27;14.48;;;;;;2681044;76;20418;-93
2023/04/19 09:56:38;;;;;;;;;;;14.62;14.08;;;;;;2681922;76;20451;-92
2023/04/19 10:00:07;;;;;;;;;;;14.85;12.88;;;;;;2681658;76;20418;-93
2023/04/19 10:03:39;;;;;;;;;;;15.45;13.71;;;;;;2682315;76;20443;-92
2023/04/19 10:07:09;;;;;;;;;;;15.86;11.74;;;;;;2681612;76;20601;-92
2023/04/19 10:10:38;;;;;;;;;;;16.17;9.52;;;;;;2681468;76;20482;-93
2023/04/19 10:14:06;;;;;;;;;;;16.40;10.41;;;;;;2681379;76;20497;-93
2023/04/19 10:17:34;;;;;;;;;;;16.41;7.15;;;;;;2681943;76;20404;-92
2023/04/19 10:21:02;;;;;;;;;;;16.74;6.77;;;;;;2681783;76;20447;-92
2023/04/19 10:24:30;;;;;;;;;;;17.21;6.37;;;;;;2682154;76;20402;-92
2023/04/19 10:28:02;;;;;;;;;;;16.91;3.13;;;;;;2681334;76;20403;-93
2023/04/19 10:31:30;;;;;;;;;;;17.09;4.80;;;;;;2681998;76;20426;-93
2023/04/19 10:34:58;;;;;;;;;;;16.72;5.77;;;;;;2674352;76;20419;-91
2023/04/19 10:38:26;;;;;;;;;;;16.86;7.85;;;;;;2671303;76;20420;-90
2023/04/19 10:41:54;;;;;;;;;;;16.98;6.24;;;;;;2672228;76;20416;-91
2023/04/19 10:45:22;;;;;;;;;;;16.65;4.41;;;;;;2671218;76;22227;-91
2023/04/19 10:48:53;;;;;;;;;;;16.61;6.56;;;;;;2671757;76;20435;-92
2023/04/19 10:52:22;;;;;;;;;;;15.99;7.65;;;;;;2671788;76;20326;-91
2023/04/19 10:55:50;;;;;;;;;;;15.01;8.17;;;;;;2671289;76;20437;-90
2023/04/19 10:59:21;;;;;;;;;;;14.24;9.81;;;;;;2670331;76;21033;-89
2023/04/19 11:02:49;;;;;;;;;;;13.40;10.98;;;;;;2671406;76;20365;-91
2023/04/19 11:06:19;;;;;;;;;;;12.44;13.92;;;;;;2671574;76;20390;-90
2023/04/19 11:09:47;;;;;;;;;;;12.11;15.39;;;;;;2671151;76;20901;-89
2023/04/19 11:13:15;;;;;;;;;;;11.88;16.44;;;;;;2670999;76;20441;-88
2023/04/19 11:16:43;;;;;;;;;;;11.66;18.44;;;;;;2670867;76;20494;-88
2023/04/19 11:20:13;;;;;;;;;;;11.81;19.68;;;;;;2670320;76;21018;-88
2023/04/19 11:23:41;;;;;;;;;;;11.88;19.78;;;;;;2670397;76;20410;-86
2023/04/19 11:27:09;;;;;;;;;;;12.03;20.88;;;;;;2670068;76;20485;-89
2023/04/19 11:30:37;;;;;;;;;;;11.94;21.94;;;;;;2670600;76;20430;-88
2023/04/19 11:34:05;;;;;;;;;;;12.01;23.34;;;;;;2671180;76;20318;-88
2023/04/19 11:37:33;;;;;;;;;;;12.00;23.91;;;;;;2671075;76;21012;-89
2023/04/19 11:41:01;;;;;;;;;;;11.94;24.83;;;;;;2671214;76;20431;-89
2023/04/19 11:44:30;;;;;;;;;;;11.89;24.64;;;;;;2670331;76;20475;-89
2023/04/19 11:47:58;;;;;;;;;;;11.86;25.25;;;;;;2672679;76;20315;-86
2023/04/19 11:51:26;;;;;;;;;;;12.10;26.43;;;;;;2673346;76;20804;-86
2023/04/19 11:54:54;;;;;;;;;;;11.96;26.49;;;;;;2671476;76;21354;-89
2023/04/19 11:58:22;;;;;;;;;;;11.43;26.35;;;;;;2670454;76;20791;-88
2023/04/19 12:01:50;;;;;;;;;;;11.30;27.65;;;;;;2669340;76;20378;-89
2023/04/19 12:05:18;;;;;;;;;;;11.51;28.39;;;;;;2670622;76;20320;-89
2023/04/19 12:08:46;;;;;;;;;;;11.63;28.87;;;;;;2670741;76;20435;-89
2023/04/19 12:12:14;;;;;;;;;;;11.42;27.92;;;;;;2670446;76;20316;-88
2023/04/19 12:15:42;;;;;;;;;;;11.70;28.89;;;;;;2671018;76;20309;-89
2023/04/19 12:19:12;;;;;;;;;;;12.04;28.90;;;;;;2671861;76;20346;-88
2023/04/19 12:22:43;;;;;;;;;;;12.34;28.43;;;;;;2670376;76;20445;-88
2023/04/19 12:26:11;;;;;;;;;;;12.31;28.06;;;;;;2671110;76;20439;-89
2023/04/19 12:29:39;;;;;;;;;;;11.94;28.70;;;;;;2671380;76;20817;-88
2023/04/19 12:33:08;;;;;;;;;;;11.83;29.84;;;;;;2669704;76;21031;-88
2023/04/19 12:36:36;;;;;;;;;;;11.90;29.93;;;;;;2670613;76;20455;-89
2023/04/19 12:40:04;;;;;;;;;;;12.22;30.00;;;;;;2671171;76;20904;-89
2023/04/19 12:43:32;;;;;;;;;;;12.33;29.47;;;;;;2669647;76;21146;-89
2023/04/19 12:47:00;;;;;;;;;;;12.21;29.64;;;;;;2670974;76;20464;-90
2023/04/19 12:50:28;;;;;;;;;;;12.03;29.89;;;;;;2669120;76;20422;-89
2023/04/19 12:53:56;;;;;;;;;;;11.81;29.40;;;;;;2669287;76;20423;-90
2023/04/19 12:57:24;;;;;;;;;;;11.82;30.80;;;;;;2669617;76;20452;-91
2023/04/19 13:01:03;;;;;;;;;;;11.79;29.86;;;;;;2672145;76;20429;-91
2023/04/19 13:04:26;;;;;;;;;;;11.88;30.77;;;;;;2669498;76;20927;-90
2023/04/19 13:07:54;;;;;;;;;;;11.86;30.77;;;;;;2671067;76;21003;-91
2023/04/19 13:11:22;;;;;;;;;;;11.64;30.54;;;;;;2671522;76;20423;-90
2023/04/19 13:14:51;;;;;;;;;;;11.48;30.87;;;;;;2670331;76;20418;-91
2023/04/19 13:18:19;;;;;;;;;;;11.27;31.41;;;;;;2671248;76;20437;-90
2023/04/19 13:21:47;;;;;;;;;;;11.09;32.44;;;;;;2669459;76;20476;-89
2023/04/19 13:25:24;;;;;;;;;;;11.12;33.25;;;;;;2668376;76;20338;-89
2023/04/19 13:28:50;;;;;;;;;;;11.07;32.95;;;;;;2668587;76;20333;-89
2023/04/19 13:32:18;;;;;;;;;;;10.77;32.79;;;;;;2670307;76;20467;-90
2023/04/19 13:35:46;;;;;;;;;;;10.64;35.38;;;;;;2670249;76;20589;-91
2023/04/19 13:39:14;;;;;;;;;;;10.56;35.77;;;;;;2671171;76;20451;-90
2023/04/19 13:42:42;;;;;;;;;;;10.24;33.13;;;;;;2669633;76;20780;-88
2023/04/19 13:46:10;;;;;;;;;;;9.99;34.25;;;;;;2670324;76;20335;-89
2023/04/19 13:49:39;;;;;;;;;;;9.90;35.66;;;;;;2670813;76;20367;-89
2023/04/19 13:53:07;;;;;;;;;;;9.85;35.73;;;;;;2668584;76;20415;-89
2023/04/19 13:56:35;;;;;;;;;;;9.78;36.34;;;;;;2670809;76;20326;-91
2023/04/19 14:00:03;;;;;;;;;;;9.68;36.37;;;;;;2672886;76;20465;-93
2023/04/19 14:03:33;;;;;;;;;;;9.62;38.20;;;;;;2669996;76;20427;-90
2023/04/19 14:07:01;;;;;;;;;;;9.68;38.56;;;;;;2669143;76;20475;-91
2023/04/19 14:10:31;;;;;;;;;;;9.66;37.75;;;;;;2671238;76;20396;-91
2023/04/19 14:13:59;;;;;;;;;;;9.56;37.37;;;;;;2671436;76;20334;-91
2023/04/19 14:17:27;;;;;;;;;;;9.54;37.34;;;;;;2671237;76;20320;-91
2023/04/19 14:20:55;;;;;;;;;;;9.21;37.42;;;;;;2673527;76;20425;-91
2023/04/19 14:24:29;;;;;;;;;;;9.20;37.72;;;;;;2672153;76;20461;-92
2023/04/19 14:28:05;;;;;;;;;;;9.26;36.77;;;;;;2670620;76;20467;-94
2023/04/19 14:31:30;;;;;;;;;;;9.32;37.23;;;;;;2671186;76;20787;-91
2023/04/19 14:34:58;;;;;;;;;;;9.21;35.87;;;;;;2670451;76;20327;-92
2023/04/19 14:38:32;;;;;;;;;;;9.27;36.18;;;;;;2671370;76;20864;-92
2023/04/19 14:42:06;;;;;;;;;;;9.21;35.18;;;;;;2667076;76;20441;-91
2023/04/19 14:45:34;;;;;;;;;;;8.91;34.29;;;;;;2667694;76;20522;-90
2023/04/19 14:49:05;;;;;;;;;;;8.58;33.86;;;;;;2666383;76;20422;-90
2023/04/19 14:52:47;;;;;;;;;;;8.33;34.44;;;;;;2667247;76;20420;-92
2023/04/19 14:56:25;;;;;;;;;;;8.31;35.14;;;;;;2669521;76;20459;-92
2023/04/19 15:00:00;;;;;;;;;;;8.29;35.15;;;;;;2669435;76;20429;-92
2023/04/19 15:04:00;;;;;;;;;;;8.39;35.63;;;;;;2669147;76;20433;-92
2023/04/19 15:07:21;;;;;;;;;;;8.42;34.61;;;;;;2668019;76;20446;-92
2023/04/19 15:10:52;;;;;;;;;;;8.37;34.50;;;;;;2664839;76;20933;-91
2023/04/19 15:14:24;;;;;;;;;;;8.43;34.96;;;;;;2668630;76;20479;-91
2023/04/19 15:21:36;;;;;;;;;;;8.47;34.30;;;;;;2667965;76;20454;-91
2023/04/19 15:25:09;;;;;;;;;;;8.57;34.93;;;;;;2669670;76;20462;-91
2023/04/19 15:28:50;;;;;;;;;;;;;;;;;;;;;
2023/04/19 15:32:16;;;;;;;;;;;8.73;34.79;;;;;;2667813;76;20469;-90
2023/04/19 15:35:53;;;;;;;;;;;8.74;34.15;;;;;;2669105;76;20446;-91
2023/04/19 15:39:20;;;;;;;;;;;8.82;33.79;;;;;;2669479;76;20437;-91
2023/04/19 15:42:54;;;;;;;;;;;8.83;33.85;;;;;;2668121;76;20347;-92
2023/04/19 15:46:29;;;;;;;;;;;8.87;34.11;;;;;;2666715;76;20471;-91
2023/04/19 15:53:43;;;;;;;;;;;8.87;34.44;;;;;;2669154;76;20442;-92
2023/04/19 15:57:22;;;;;;;;;;;8.67;34.18;;;;;;2669740;76;20443;-92
2023/04/19 16:00:50;;;;;;;;;;;8.47;34.59;;;;;;2672649;76;20444;-92
2023/04/19 16:04:41;;;;;;;;;;;8.41;35.50;;;;;;2668924;76;20376;-91
2023/04/19 16:08:00;;;;;;;;;;;8.35;34.96;;;;;;2671522;76;21095;-92
2023/04/19 16:11:38;;;;;;;;;;;8.34;34.59;;;;;;2668934;76;20416;-92
2023/04/19 16:15:16;;;;;;;;;;;8.48;35.43;;;;;;2670440;76;20359;-93
2023/04/19 16:18:54;;;;;;;;;;;8.43;35.37;;;;;;2670237;76;20434;-93
2023/04/19 16:22:22;;;;;;;;;;;8.34;35.41;;;;;;2669940;76;20937;-93
2023/04/19 16:25:53;;;;;;;;;;;8.29;35.02;;;;;;2670824;76;20380;-93
2023/04/19 16:29:33;;;;;;;;;;;8.26;34.13;;;;;;2670282;76;20351;-93
2023/04/19 16:33:14;;;;;;;;;;;8.23;33.71;;;;;;2669785;76;20470;-93
2023/04/19 16:37:01;;;;;;;;;;;8.12;33.38;;;;;;2670920;76;20440;-93
2023/04/19 16:40:16;;;;;;;;;;;8.16;34.17;;;;;;2671334;76;20311;-92
2023/04/19 16:43:45;;;;;;;;;;;8.16;34.37;;;;;;2673951;76;20526;-93
2023/04/19 16:47:22;;;;;;;;;;;8.18;34.61;;;;;;2669636;76;20415;-93
2023/04/19 16:51:06;;;;;;;;;;;8.22;34.76;;;;;;2669108;76;20466;-92
2023/04/19 16:54:35;;;;;;;;;;;8.34;35.16;;;;;;2667728;76;20439;-93
2023/04/19 16:58:11;;;;;;;;;;;8.43;34.55;;;;;;2668673;76;20457;-93
2023/04/19 17:01:39;;;;;;;;;;;8.49;34.35;;;;;;2670032;76;20475;-93
2023/04/19 17:05:14;;;;;;;;;;;8.47;34.12;;;;;;2670066;76;20405;-93
2023/04/19 17:08:42;;;;;;;;;;;8.51;33.93;;;;;;2670607;76;20422;-92
2023/04/19 17:12:10;;;;;;;;;;;8.42;33.02;;;;;;2670914;76;20457;-92
2023/04/19 17:15:38;;;;;;;;;;;8.41;33.43;;;;;;2669858;76;20414;-91
2023/04/19 17:19:06;;;;;;;;;;;8.36;33.30;;;;;;2670445;76;20429;-92
2023/04/19 17:22:34;;;;;;;;;;;8.34;33.01;;;;;;2669976;76;20457;-93
2023/04/19 17:26:02;;;;;;;;;;;8.24;32.57;;;;;;2671317;76;20444;-92
2023/04/19 17:29:31;;;;;;;;;;;8.14;32.13;;;;;;2670631;76;20461;-92
2023/04/19 17:33:07;;;;;;;;;;;8.05;32.46;;;;;;2669695;76;20525;-92
2023/04/19 17:36:30;;;;;;;;;;;8.04;32.60;;;;;;2670066;76;20430;-92
2023/04/19 17:39:59;;;;;;;;;;;8.05;32.56;;;;;;2670229;76;20436;-92
2023/04/19 17:43:27;;;;;;;;;;;8.03;32.48;;;;;;2670237;76;21217;-92
2023/04/19 17:46:58;;;;;;;;;;;8.04;32.93;;;;;;2669744;76;20510;-92
2023/04/19 17:50:30;;;;;;;;;;;8.03;32.59;;;;;;2669944;76;20768;-92
2023/04/19 17:53:58;;;;;;;;;;;8.06;32.44;;;;;;2669945;76;20439;-92
2023/04/19 17:57:28;;;;;;;;;;;8.00;31.80;;;;;;2670695;76;20363;-92
2023/04/19 18:00:56;;;;;;;;;;;8.02;32.25;;;;;;2671121;76;20402;-92
2023/04/19 18:04:27;;;;;;;;;;;8.00;32.06;;;;;;2671354;76;20440;-92
2023/04/19 18:07:55;;;;;;;;;;;7.94;31.55;;;;;;2671556;76;20456;-92
2023/04/19 18:11:23;;;;;;;;;;;7.87;31.15;;;;;;2670712;76;20982;-92
2023/04/19 18:14:54;;;;;;;;;;;7.79;30.87;;;;;;2671125;76;20546;-91
2023/04/19 18:18:22;;;;;;;;;;;7.77;30.73;;;;;;2670769;76;20451;-92
2023/04/19 18:21:50;;;;;;;;;;;7.68;30.37;;;;;;2669775;76;20440;-92
2023/04/19 18:25:18;;;;;;;;;;;7.60;30.18;;;;;;2670148;76;21048;-91
2023/04/19 18:28:47;;;;;;;;;;;7.54;30.43;;;;;;2670504;76;20992;-91
2023/04/19 18:32:15;;;;;;;;;;;7.43;30.07;;;;;;2670461;76;20552;-91
2023/04/19 18:35:43;;;;;;;;;;;7.39;30.32;;;;;;2669738;76;20433;-91
2023/04/19 18:39:12;;;;;;;;;;;7.22;29.70;;;;;;2670597;76;20426;-90
2023/04/19 18:42:41;;;;;;;;;;;7.24;30.72;;;;;;2668947;76;22251;-91
2023/04/19 18:46:11;;;;;;;;;;;7.23;30.43;;;;;;2670326;76;20777;-91
2023/04/19 18:49:40;;;;;;;;;;;7.24;31.12;;;;;;2670457;76;20463;-91
2023/04/19 18:53:08;;;;;;;;;;;7.35;31.60;;;;;;2669702;76;20422;-90
2023/04/19 18:56:39;;;;;;;;;;;7.44;31.64;;;;;;2670610;76;20484;-91
2023/04/19 19:00:10;;;;;;;;;;;7.46;31.42;;;;;;2669772;76;20485;-91
2023/04/19 19:03:38;;;;;;;;;;;7.42;31.25;;;;;;2667496;76;20489;-91
2023/04/19 19:07:11;;;;;;;;;;;7.45;31.01;;;;;;2667845;76;20479;-91
2023/04/19 19:10:36;;;;;;;;;;;7.52;31.50;;;;;;2669219;76;20541;-91
2023/04/19 19:14:05;;;;;;;;;;;7.58;31.59;;;;;;2669654;76;20469;-91
2023/04/19 19:17:33;;;;;;;;;;;7.54;31.06;;;;;;2669054;76;20446;-91
2023/04/19 19:21:03;;;;;;;;;;;7.55;32.17;;;;;;2668993;76;20453;-91
2023/04/19 19:24:34;;;;;;;;;;;7.52;32.54;;;;;;2668457;76;20517;-91
2023/04/19 19:28:02;;;;;;;;;;;7.56;32.57;;;;;;2670322;76;20386;-91
2023/04/19 19:31:30;;;;;;;;;;;7.56;32.35;;;;;;2670208;76;20447;-91
2023/04/19 19:35:01;;;;;;;;;;;7.55;32.08;;;;;;2669461;76;20980;-91
2023/04/19 19:38:28;;;;;;;;;;;7.40;31.29;;;;;;2669022;76;20679;-91
2023/04/19 19:41:56;;;;;;;;;;;7.37;31.70;;;;;;2669668;76;20445;-92
2023/04/19 19:45:24;;;;;;;;;;;7.28;31.45;;;;;;2668956;76;20453;-91
2023/04/19 19:48:55;;;;;;;;;;;7.24;31.77;;;;;;2668419;76;20995;-92
2023/04/19 19:52:24;;;;;;;;;;;7.29;31.73;;;;;;2668628;76;20914;-91
2023/04/19 19:55:52;;;;;;;;;;;7.27;31.21;;;;;;2668801;76;20428;-91
2023/04/19 19:59:23;;;;;;;;;;;7.25;30.50;;;;;;2669399;76;20783;-91
2023/04/19 20:02:53;;;;;;;;;;;7.22;29.80;;;;;;2666730;76;20482;-92
2023/04/19 20:06:24;;;;;;;;;;;7.04;29.29;;;;;;2669692;76;20433;-92
2023/04/19 20:09:51;;;;;;;;;;;7.11;30.23;;;;;;2669747;76;20506;-91
2023/04/19 20:13:19;;;;;;;;;;;7.15;30.26;;;;;;2668705;76;20462;-91
2023/04/19 20:16:48;;;;;;;;;;;7.14;29.90;;;;;;2669675;76;20451;-91
2023/04/19 20:20:16;;;;;;;;;;;7.00;28.93;;;;;;2667653;76;20482;-91
2023/04/19 20:23:44;;;;;;;;;;;6.74;29.32;;;;;;2668927;76;20466;-91
2023/04/19 20:27:12;;;;;;;;;;;6.69;30.32;;;;;;2669694;76;20512;-90
2023/04/19 20:30:40;;;;;;;;;;;6.73;30.35;;;;;;2669718;76;20447;-91
2023/04/19 20:34:08;;;;;;;;;;;6.74;30.20;;;;;;2669767;76;20459;-91
2023/04/19 20:37:38;;;;;;;;;;;6.86;30.53;;;;;;2670001;76;20485;-92
2023/04/19 20:41:11;;;;;;;;;;;6.91;30.45;;;;;;2669744;76;20586;-91